createdAt,value
2018-02-09T00:01:38.200Z,81.14
2018-02-09T00:04:05.913Z,81.00
2018-02-09T00:06:33.744Z,81.11
2018-02-09T00:09:01.523Z,81.14
2018-02-09T00:11:29.228Z,81.22
2018-02-09T00:13:57.029Z,81.20
2018-02-09T00:16:24.653Z,81.22
2018-02-09T00:18:52.423Z,81.26
2018-02-09T00:21:20.164Z,81.23
2018-02-09T00:23:47.821Z,81.12
2018-02-09T00:26:15.794Z,81.12
2018-02-09T00:28:43.515Z,81.24
2018-02-09T00:31:11.227Z,81.24
2018-02-09T00:33:39.199Z,81.45
2018-02-09T00:36:06.948Z,81.54
2018-02-09T00:38:34.635Z,81.57
2018-02-09T00:41:02.339Z,81.54
2018-02-09T00:43:30.085Z,81.61
2018-02-09T00:45:57.837Z,81.52
2018-02-09T00:48:25.443Z,81.47
2018-02-09T00:50:53.334Z,81.56
2018-02-09T00:53:21.031Z,81.54
2018-02-09T00:55:48.740Z,81.49
2018-02-09T00:58:16.523Z,81.58
2018-02-09T01:00:44.253Z,81.68
2018-02-09T01:03:12.022Z,81.58
2018-02-09T01:06:04.989Z,81.44
2018-02-09T01:08:32.696Z,81.40
2018-02-09T01:11:00.354Z,81.28
2018-02-09T01:13:28.031Z,81.28
2018-02-09T01:15:55.886Z,81.12
2018-02-09T01:18:23.823Z,81.12
2018-02-09T01:20:51.558Z,81.20
2018-02-09T01:23:19.219Z,81.02
2018-02-09T01:25:46.860Z,81.05
2018-02-09T01:28:15.997Z,81.04
2018-02-09T01:30:43.712Z,80.96
2018-02-09T01:33:11.363Z,81.05
2018-02-09T01:35:39.049Z,80.65
2018-02-09T01:38:06.788Z,80.50
2018-02-09T01:40:34.499Z,80.43
2018-02-09T01:43:02.205Z,80.44
2018-02-09T01:45:29.886Z,80.34
2018-02-09T01:47:57.551Z,80.23
2018-02-09T01:50:25.256Z,80.18
2018-02-09T01:52:52.905Z,79.80
2018-02-09T01:55:21.145Z,79.89
2018-02-09T01:57:49.514Z,79.80
2018-02-09T02:00:17.477Z,79.71
2018-02-09T02:02:45.448Z,79.68
2018-02-09T02:05:13.263Z,79.65
2018-02-09T02:07:40.874Z,79.54
2018-02-09T02:10:08.843Z,79.30
2018-02-09T02:12:36.709Z,79.44
2018-02-09T02:15:04.424Z,79.58
2018-02-09T02:17:32.084Z,79.59
2018-02-09T02:19:59.719Z,79.58
2018-02-09T02:22:27.738Z,79.47
2018-02-09T02:24:55.497Z,79.57
2018-02-09T02:27:23.422Z,79.64
2018-02-09T02:29:51.137Z,79.69
2018-02-09T02:32:18.828Z,79.59
2018-02-09T02:34:46.536Z,79.80
2018-02-09T02:37:14.198Z,79.63
2018-02-09T02:39:41.881Z,79.50
2018-02-09T02:42:09.527Z,79.67
2018-02-09T02:44:37.220Z,79.78
2018-02-09T02:47:04.868Z,79.69
2018-02-09T02:49:32.536Z,79.80
2018-02-09T02:52:00.215Z,79.88
2018-02-09T02:54:27.848Z,79.78
2018-02-09T02:56:55.501Z,79.79
2018-02-09T02:59:23.221Z,79.72
2018-02-09T03:01:50.869Z,79.76
2018-02-09T03:04:18.570Z,79.67
2018-02-09T03:06:46.277Z,79.57
2018-02-09T03:09:13.979Z,79.78
2018-02-09T03:11:41.618Z,79.75
2018-02-09T03:14:09.705Z,79.79
2018-02-09T03:16:37.364Z,79.80
2018-02-09T03:19:04.994Z,79.80
2018-02-09T03:21:33.005Z,79.80
2018-02-09T03:24:00.638Z,79.85
2018-02-09T03:26:28.295Z,79.75
2018-02-09T03:28:55.950Z,79.94
2018-02-09T03:31:23.620Z,80.08
2018-02-09T03:33:51.733Z,80.15
2018-02-09T03:36:19.403Z,80.13
2018-02-09T03:38:47.108Z,80.06
2018-02-09T03:41:14.714Z,80.16
2018-02-09T03:43:42.324Z,80.14
2018-02-09T03:46:09.963Z,80.19
2018-02-09T03:48:37.563Z,80.26
2018-02-09T03:51:05.201Z,80.26
2018-02-09T03:53:32.841Z,80.29
2018-02-09T03:56:00.503Z,80.33
2018-02-09T03:58:28.100Z,80.31
2018-02-09T04:00:55.719Z,80.40
2018-02-09T04:03:23.669Z,80.49
2018-02-09T04:05:51.287Z,80.36
2018-02-09T04:08:19.496Z,80.52
2018-02-09T04:10:47.131Z,80.52
2018-02-09T04:13:14.737Z,80.68
2018-02-09T04:15:42.496Z,80.76
2018-02-09T04:18:10.102Z,80.80
2018-02-09T04:20:37.719Z,80.83
2018-02-09T04:23:05.683Z,80.87
2018-02-09T04:25:33.648Z,80.96
2018-02-09T04:28:01.225Z,81.22
2018-02-09T04:30:28.836Z,81.18
2018-02-09T04:32:56.456Z,81.18
2018-02-09T04:35:24.110Z,81.31
2018-02-09T04:37:51.729Z,81.27
2018-02-09T04:40:19.338Z,81.26
2018-02-09T04:42:46.921Z,81.21
2018-02-09T04:45:15.243Z,81.23
2018-02-09T04:47:42.850Z,81.29
2018-02-09T04:50:10.483Z,81.36
2018-02-09T04:52:38.165Z,81.32
2018-02-09T04:55:05.759Z,81.38
2018-02-09T04:57:33.351Z,81.37
2018-02-09T05:00:01.035Z,81.42
2018-02-09T05:02:28.790Z,81.39
2018-02-09T05:04:56.636Z,81.37
2018-02-09T05:07:24.435Z,81.38
2018-02-09T05:09:52.170Z,81.28
2018-02-09T05:12:20.022Z,81.46
2018-02-09T05:14:47.701Z,81.57
2018-02-09T05:17:15.409Z,81.63
2018-02-09T05:19:43.291Z,81.46
2018-02-09T05:22:11.602Z,81.42
2018-02-09T05:24:39.375Z,81.51
2018-02-09T05:27:07.125Z,81.56
2018-02-09T05:29:34.988Z,81.67
2018-02-09T05:32:02.630Z,81.92
2018-02-09T05:34:30.267Z,81.95
2018-02-09T05:36:58.213Z,82.15
2018-02-09T05:39:25.915Z,82.41
2018-02-09T05:41:53.713Z,82.23
2018-02-09T05:44:21.916Z,82.30
2018-02-09T05:46:49.774Z,82.55
2018-02-09T05:49:17.459Z,82.82
2018-02-09T05:51:45.115Z,82.68
2018-02-09T05:54:12.759Z,82.61
2018-02-09T05:56:40.547Z,82.70
2018-02-09T05:59:08.182Z,82.77
2018-02-09T06:01:35.838Z,82.89
2018-02-09T06:04:03.617Z,82.92
2018-02-09T06:06:31.816Z,82.81
2018-02-09T06:08:59.557Z,82.76
2018-02-09T06:11:27.200Z,82.73
2018-02-09T06:13:55.142Z,82.67
2018-02-09T06:16:22.918Z,82.91
2018-02-09T06:18:50.934Z,82.85
2018-02-09T06:21:18.545Z,82.72
2018-02-09T06:23:46.236Z,82.85
2018-02-09T06:26:14.038Z,82.99
2018-02-09T06:28:41.892Z,83.04
2018-02-09T06:31:09.542Z,83.04
2018-02-09T06:33:37.143Z,82.92
2018-02-09T06:36:04.765Z,82.79
2018-02-09T06:38:32.430Z,82.91
2018-02-09T06:41:00.019Z,82.83
2018-02-09T06:43:27.967Z,82.90
2018-02-09T06:45:55.573Z,82.96
2018-02-09T06:48:23.215Z,83.03
2018-02-09T06:50:50.862Z,82.82
2018-02-09T06:53:18.464Z,82.79
2018-02-09T06:55:46.131Z,82.80
2018-02-09T06:58:13.743Z,82.79
2018-02-09T07:00:41.411Z,82.75
2018-02-09T07:03:09.010Z,82.68
2018-02-09T07:05:36.630Z,82.59
2018-02-09T07:08:04.591Z,82.56
2018-02-09T07:10:32.397Z,82.63
2018-02-09T07:13:00.158Z,82.46
2018-02-09T07:15:27.787Z,82.50
2018-02-09T07:17:55.436Z,82.39
2018-02-09T07:20:23.471Z,82.27
2018-02-09T07:22:51.123Z,82.21
2018-02-09T07:25:18.798Z,82.09
2018-02-09T07:27:46.829Z,82.34
2018-02-09T07:30:14.498Z,82.22
2018-02-09T07:32:42.418Z,82.11
2018-02-09T07:35:10.085Z,82.17
2018-02-09T07:37:37.795Z,82.08
2018-02-09T07:40:05.561Z,81.67
2018-02-09T07:42:33.206Z,81.95
2018-02-09T07:45:00.966Z,81.79
2018-02-09T07:47:28.607Z,81.72
2018-02-09T07:49:56.359Z,81.92
2018-02-09T07:52:24.043Z,81.83
2018-02-09T07:54:52.127Z,81.60
2018-02-09T07:57:19.779Z,81.53
2018-02-09T07:59:47.453Z,81.25
2018-02-09T08:02:15.059Z,81.06
2018-02-09T08:04:42.713Z,81.09
2018-02-09T08:07:10.344Z,81.08
2018-02-09T08:09:38.038Z,80.96
2018-02-09T08:12:08.933Z,81.07
2018-02-09T08:14:36.623Z,80.90
2018-02-09T08:17:04.266Z,80.48
2018-02-09T08:19:32.843Z,80.55
2018-02-09T08:22:00.806Z,80.08
2018-02-09T08:24:28.698Z,80.11
2018-02-09T08:26:56.311Z,80.05
2018-02-09T08:29:24.199Z,79.98
2018-02-09T08:31:52.584Z,79.93
2018-02-09T08:34:20.282Z,79.51
2018-02-09T08:36:47.865Z,79.45
2018-02-09T08:39:15.874Z,79.49
2018-02-09T08:41:43.470Z,79.30
2018-02-09T08:44:11.117Z,79.47
2018-02-09T08:46:38.718Z,79.38
2018-02-09T08:49:06.562Z,78.69
2018-02-09T08:51:34.530Z,78.93
2018-02-09T08:54:02.105Z,78.83
2018-02-09T08:56:29.778Z,78.86
2018-02-09T08:58:57.383Z,78.10
2018-02-09T09:01:33.211Z,78.53
2018-02-09T09:04:00.838Z,77.88
2018-02-09T09:06:28.523Z,78.04
2018-02-09T09:08:56.623Z,77.85
2018-02-09T09:11:24.214Z,77.62
2018-02-09T09:13:52.059Z,77.34
2018-02-09T09:16:19.728Z,77.63
2018-02-09T09:18:47.381Z,77.82
2018-02-09T09:21:15.012Z,77.61
2018-02-09T09:23:42.708Z,77.48
2018-02-09T09:26:10.328Z,77.20
2018-02-09T09:28:37.985Z,77.31
2018-02-09T09:31:05.627Z,76.75
2018-02-09T09:33:33.661Z,77.15
2018-02-09T09:36:01.290Z,76.61
2018-02-09T09:38:29.300Z,76.72
2018-02-09T09:40:57.343Z,76.59
2018-02-09T09:43:24.929Z,76.76
2018-02-09T09:45:52.553Z,76.10
2018-02-09T09:48:20.215Z,75.93
2018-02-09T09:50:48.314Z,75.67
2018-02-09T09:53:15.981Z,75.57
2018-02-09T09:55:43.597Z,75.02
2018-02-09T09:58:11.314Z,75.53
2018-02-09T10:00:38.887Z,74.90
2018-02-09T10:03:06.522Z,75.69
2018-02-09T10:05:34.215Z,75.13
2018-02-09T10:08:01.840Z,74.78
2018-02-09T10:10:29.832Z,74.94
2018-02-09T10:12:57.489Z,74.15
2018-02-09T10:15:25.092Z,74.12
2018-02-09T10:17:52.717Z,73.85
2018-02-09T10:20:20.413Z,74.35
2018-02-09T10:22:48.033Z,74.19
2018-02-09T10:25:15.641Z,73.11
2018-02-09T10:27:43.296Z,73.39
2018-02-09T10:30:10.915Z,73.29
2018-02-09T10:32:38.582Z,72.37
2018-02-09T10:35:06.193Z,73.76
2018-02-09T10:37:34.109Z,73.26
2018-02-09T10:40:01.756Z,72.79
2018-02-09T10:42:29.384Z,72.77
2018-02-09T10:44:57.221Z,73.18
2018-02-09T10:47:25.228Z,72.50
2018-02-09T10:49:53.082Z,72.16
2018-02-09T10:52:21.050Z,72.83
2018-02-09T10:54:48.790Z,72.24
2018-02-09T10:57:16.497Z,71.90
2018-02-09T10:59:44.279Z,71.27
2018-02-09T11:02:12.014Z,71.70
2018-02-09T11:04:40.248Z,72.38
2018-02-09T11:07:08.021Z,71.66
2018-02-09T11:09:35.775Z,71.72
2018-02-09T11:12:08.061Z,70.51
2018-02-09T11:14:36.392Z,71.25
2018-02-09T11:17:06.255Z,71.01
2018-02-09T11:19:34.777Z,70.87
2018-02-09T11:22:06.325Z,70.88
2018-02-09T11:24:34.120Z,70.42
2018-02-09T11:27:30.061Z,69.80
2018-02-09T11:33:28.239Z,69.54
2018-02-09T11:38:46.768Z,70.62
2018-02-09T11:41:16.788Z,69.79
2018-02-09T11:44:03.300Z,69.72
2018-02-09T12:01:19.734Z,68.59
2018-02-09T12:06:53.487Z,68.87
2018-02-09T12:12:21.076Z,68.65
2018-02-09T12:20:50.023Z,68.74
2018-02-09T12:23:18.278Z,67.55
2018-02-09T12:25:54.758Z,68.24
2018-02-09T12:28:22.917Z,67.83
2018-02-09T12:30:51.095Z,68.48
2018-02-09T12:33:18.886Z,68.99
2018-02-09T12:35:46.951Z,68.67
2018-02-09T12:38:16.415Z,67.75
2018-02-09T15:07:02.090Z,66.12
2018-02-09T17:58:15.239Z,73.11
2018-02-09T18:03:54.839Z,73.25
2018-02-09T18:11:06.974Z,73.43
2018-02-09T18:13:40.338Z,73.74
2018-02-09T18:16:10.023Z,73.48
2018-02-09T18:18:38.671Z,73.27
2018-02-09T18:21:09.431Z,72.98
2018-02-09T18:23:41.511Z,73.36
2018-02-09T18:26:12.394Z,72.91
2018-02-09T18:28:44.461Z,72.94
2018-02-09T18:31:14.592Z,73.30
2018-02-09T18:33:45.328Z,72.89
2018-02-09T18:36:13.219Z,73.25
2018-02-09T18:38:40.989Z,73.62
2018-02-09T18:41:08.894Z,73.25
2018-02-09T18:43:36.841Z,73.63
2018-02-09T18:46:04.790Z,73.78
2018-02-09T18:48:32.620Z,73.43
2018-02-09T18:51:04.843Z,73.61
2018-02-09T18:53:35.046Z,74.04
2018-02-09T18:56:08.432Z,73.78
2018-02-09T18:58:39.351Z,74.17
2018-02-09T19:01:07.281Z,74.18
2018-02-09T19:03:34.986Z,74.22
2018-02-09T19:06:03.245Z,74.16
2018-02-09T19:08:32.374Z,74.50
2018-02-09T19:11:00.457Z,74.72
2018-02-09T19:13:31.138Z,74.95
2018-02-09T19:16:00.115Z,74.65
2018-02-09T19:18:27.869Z,74.57
2018-02-09T19:20:55.921Z,74.86
2018-02-09T19:23:26.109Z,74.78
2018-02-09T19:25:53.909Z,75.06
2018-02-09T19:28:21.971Z,75.15
2018-02-09T19:30:49.859Z,75.17
2018-02-09T19:33:17.706Z,75.15
2018-02-09T19:38:37.271Z,75.55
2018-02-09T19:41:15.425Z,75.83
2018-02-09T19:46:41.362Z,75.74
2018-02-09T19:49:14.468Z,75.86
2018-02-09T19:51:45.308Z,76.31
2018-02-09T19:54:17.007Z,76.25
2018-02-09T19:56:47.198Z,76.16
2018-02-09T19:59:21.804Z,76.27
2018-02-09T20:01:50.303Z,76.24
2018-02-09T20:04:18.404Z,76.50
2018-02-09T20:09:39.328Z,76.42
2018-02-09T20:12:09.347Z,76.33
2018-02-09T20:14:46.512Z,76.66
2018-02-09T20:17:14.543Z,76.52
2018-02-09T20:19:42.663Z,76.48
2018-02-09T20:22:10.576Z,76.85
2018-02-09T20:24:42.220Z,76.82
2018-02-09T20:27:10.192Z,76.87
2018-02-09T20:32:13.365Z,76.92
2018-02-09T20:34:41.092Z,76.93
2018-02-09T20:50:50.163Z,77.79
2018-02-09T20:53:17.952Z,77.93
2018-02-09T20:55:45.638Z,78.03
2018-02-09T20:58:13.369Z,78.01
2018-02-09T21:00:42.287Z,78.22
2018-02-09T21:03:10.041Z,78.10
2018-02-09T21:05:38.175Z,78.33
2018-02-09T21:08:07.449Z,78.34
2018-02-09T21:10:35.111Z,78.47
2018-02-09T21:13:02.839Z,78.48
2018-02-09T21:15:30.535Z,78.41
2018-02-09T21:17:58.151Z,78.36
2018-02-09T21:20:25.821Z,78.47
2018-02-09T21:22:53.470Z,78.46
2018-02-09T21:25:21.122Z,78.57
2018-02-09T21:27:49.500Z,78.96
2018-02-09T21:30:17.148Z,78.95
2018-02-09T21:32:44.848Z,79.00
2018-02-09T21:35:12.536Z,78.92
2018-02-09T21:37:40.130Z,78.92
2018-02-09T21:40:07.784Z,78.82
2018-02-09T21:42:35.506Z,78.80
2018-02-09T21:45:03.108Z,78.91
2018-02-09T21:47:30.780Z,78.84
2018-02-09T21:49:58.471Z,78.84
2018-02-09T21:52:26.116Z,78.80
2018-02-09T21:54:53.765Z,78.92
2018-02-09T21:57:21.428Z,79.06
2018-02-09T21:59:49.405Z,79.06
2018-02-09T22:02:17.098Z,79.26
2018-02-09T22:04:44.811Z,79.26
2018-02-09T22:07:12.619Z,79.23
2018-02-09T22:09:40.261Z,79.28
2018-02-09T22:12:08.014Z,79.28
2018-02-09T22:14:35.690Z,79.18
2018-02-09T22:17:03.388Z,79.23
2018-02-09T22:19:31.199Z,79.21
2018-02-09T22:21:58.998Z,79.28
2018-02-09T22:24:27.083Z,79.41
2018-02-09T22:26:54.759Z,79.50
2018-02-09T22:29:22.607Z,79.55
2018-02-09T22:31:50.316Z,79.66
2018-02-09T22:34:17.929Z,79.50
2018-02-09T22:36:45.567Z,79.46
2018-02-09T22:39:13.259Z,79.59
2018-02-09T22:41:40.951Z,79.51
2018-02-09T22:44:08.673Z,79.48
2018-02-09T22:46:36.334Z,79.37
2018-02-09T22:49:04.070Z,79.61
2018-02-09T22:51:31.798Z,79.92
2018-02-09T22:53:59.457Z,79.85
2018-02-09T22:56:27.160Z,79.92
2018-02-09T22:58:54.855Z,79.91
2018-02-09T23:01:22.485Z,79.95
2018-02-09T23:03:50.101Z,79.96
2018-02-09T23:06:17.747Z,79.93
2018-02-09T23:08:45.431Z,79.90
2018-02-09T23:11:13.100Z,79.87
2018-02-09T23:13:40.732Z,79.87
2018-02-09T23:16:08.410Z,79.86
2018-02-09T23:18:36.027Z,79.91
2018-02-09T23:21:03.729Z,79.90
2018-02-09T23:23:31.403Z,79.89
2018-02-09T23:26:08.287Z,79.89
2018-02-09T23:28:37.442Z,79.85
2018-02-09T23:31:05.915Z,79.87
2018-02-09T23:33:33.578Z,79.92
2018-02-09T23:36:01.311Z,79.95
2018-02-09T23:38:29.169Z,79.99
2018-02-09T23:40:58.497Z,79.97
2018-02-09T23:43:26.450Z,79.98
2018-02-09T23:45:54.088Z,80.02
2018-02-09T23:48:21.770Z,80.04
2018-02-09T23:50:49.463Z,80.06
2018-02-09T23:53:17.106Z,80.13
2018-02-09T23:55:44.830Z,80.22
2018-02-09T23:58:12.534Z,80.27
